Terminal Aerodrome Forecast
Issued by NWS Bismarck, ND

Home | Current Version | Previous Version | Graphics & Text | Print | Product List | Glossary On
Versions: 1 2 3 4 5 6 7 8 9 10 11 12 13 14 15
000
FTUS43 KBIS 142332
TAFISN
TAF
KISN 142332Z 1500/1524 21010KT P6SM BKN060
     FM150400 19004KT P6SM FEW050 FEW250
     FM151000 24006KT P6SM SCT080 BKN110
     FM151200 27008KT P6SM SCT090
     FM151700 30015KT P6SM SKC=

USA.gov is the U.S. government's official web portal to all federal, state and local government web resources and services.